sensor_id;sensor_type;location;lat;lon;timestamp;temperature;humidity
7384;DHT22;3733;47.994;8.820;2023-06-19T00:00:07;19.70;71.10
7384;DHT22;3733;47.994;8.820;2023-06-19T00:02:39;19.60;71.40
7384;DHT22;3733;47.994;8.820;2023-06-19T00:05:05;19.60;71.70
7384;DHT22;3733;47.994;8.820;2023-06-19T00:07:31;19.60;72.20
7384;DHT22;3733;47.994;8.820;2023-06-19T00:09:57;19.60;72.80
7384;DHT22;3733;47.994;8.820;2023-06-19T00:12:22;19.50;72.80
7384;DHT22;3733;47.994;8.820;2023-06-19T00:14:48;19.50;73.10
7384;DHT22;3733;47.994;8.820;2023-06-19T00:17:14;19.50;73.30
7384;DHT22;3733;47.994;8.820;2023-06-19T00:19:42;19.50;73.50
7384;DHT22;3733;47.994;8.820;2023-06-19T00:22:08;19.50;73.50
7384;DHT22;3733;47.994;8.820;2023-06-19T00:24:34;19.40;74.40
7384;DHT22;3733;47.994;8.820;2023-06-19T00:26:59;19.40;73.90
7384;DHT22;3733;47.994;8.820;2023-06-19T00:29:32;19.30;74.10
7384;DHT22;3733;47.994;8.820;2023-06-19T00:31:58;19.20;74.80
7384;DHT22;3733;47.994;8.820;2023-06-19T00:34:24;19.20;75.50
7384;DHT22;3733;47.994;8.820;2023-06-19T00:36:50;19.10;76.20
7384;DHT22;3733;47.994;8.820;2023-06-19T00:39:16;19.10;77.00
7384;DHT22;3733;47.994;8.820;2023-06-19T00:41:43;19.00;77.50
7384;DHT22;3733;47.994;8.820;2023-06-19T00:44:10;19.00;78.00
7384;DHT22;3733;47.994;8.820;2023-06-19T00:46:40;19.00;78.90
7384;DHT22;3733;47.994;8.820;2023-06-19T00:49:07;19.00;79.00
7384;DHT22;3733;47.994;8.820;2023-06-19T00:51:32;19.00;79.90
7384;DHT22;3733;47.994;8.820;2023-06-19T00:53:58;19.00;79.50
7384;DHT22;3733;47.994;8.820;2023-06-19T00:56:24;19.00;80.40
7384;DHT22;3733;47.994;8.820;2023-06-19T00:58:51;19.00;80.90
7384;DHT22;3733;47.994;8.820;2023-06-19T01:01:18;19.00;80.60
7384;DHT22;3733;47.994;8.820;2023-06-19T01:03:44;19.00;80.90
7384;DHT22;3733;47.994;8.820;2023-06-19T01:06:13;19.00;80.30
7384;DHT22;3733;47.994;8.820;2023-06-19T01:11:11;19.00;80.30
7384;DHT22;3733;47.994;8.820;2023-06-19T01:16:10;19.00;80.30
7384;DHT22;3733;47.994;8.820;2023-06-19T01:18:37;19.00;79.50
7384;DHT22;3733;47.994;8.820;2023-06-19T01:21:16;19.10;79.20
7384;DHT22;3733;47.994;8.820;2023-06-19T01:23:43;19.00;78.20
7384;DHT22;3733;47.994;8.820;2023-06-19T01:26:09;19.10;76.90
7384;DHT22;3733;47.994;8.820;2023-06-19T01:28:35;19.00;75.80
7384;DHT22;3733;47.994;8.820;2023-06-19T01:31:22;19.00;72.70
7384;DHT22;3733;47.994;8.820;2023-06-19T01:33:51;19.20;67.60
7384;DHT22;3733;47.994;8.820;2023-06-19T01:36:18;19.40;65.60
7384;DHT22;3733;47.994;8.820;2023-06-19T01:38:44;19.60;64.00
7384;DHT22;3733;47.994;8.820;2023-06-19T01:41:11;19.70;63.30
7384;DHT22;3733;47.994;8.820;2023-06-19T01:43:37;19.90;62.90
7384;DHT22;3733;47.994;8.820;2023-06-19T01:46:03;20.00;62.30
7384;DHT22;3733;47.994;8.820;2023-06-19T01:48:29;20.10;61.90
7384;DHT22;3733;47.994;8.820;2023-06-19T01:50:54;20.10;61.50
7384;DHT22;3733;47.994;8.820;2023-06-19T01:53:20;20.20;61.10
7384;DHT22;3733;47.994;8.820;2023-06-19T01:55:46;20.20;61.10
7384;DHT22;3733;47.994;8.820;2023-06-19T01:58:11;20.20;61.00
7384;DHT22;3733;47.994;8.820;2023-06-19T02:00:37;20.20;60.90
7384;DHT22;3733;47.994;8.820;2023-06-19T02:03:03;20.20;60.90
7384;DHT22;3733;47.994;8.820;2023-06-19T02:05:30;20.20;60.80
7384;DHT22;3733;47.994;8.820;2023-06-19T02:07:56;20.20;60.70
7384;DHT22;3733;47.994;8.820;2023-06-19T02:10:21;20.20;60.60
7384;DHT22;3733;47.994;8.820;2023-06-19T02:12:47;20.10;60.40
7384;DHT22;3733;47.994;8.820;2023-06-19T02:15:13;20.10;60.50
7384;DHT22;3733;47.994;8.820;2023-06-19T02:17:38;20.10;60.50
7384;DHT22;3733;47.994;8.820;2023-06-19T02:20:05;20.00;60.50
7384;DHT22;3733;47.994;8.820;2023-06-19T02:22:34;20.00;60.60
7384;DHT22;3733;47.994;8.820;2023-06-19T02:25:00;20.10;60.70
7384;DHT22;3733;47.994;8.820;2023-06-19T02:27:25;20.00;60.70
7384;DHT22;3733;47.994;8.820;2023-06-19T02:29:51;20.00;60.80
7384;DHT22;3733;47.994;8.820;2023-06-19T02:32:16;20.00;61.00
7384;DHT22;3733;47.994;8.820;2023-06-19T02:34:42;20.00;61.10
7384;DHT22;3733;47.994;8.820;2023-06-19T02:37:08;20.00;61.10
7384;DHT22;3733;47.994;8.820;2023-06-19T02:39:33;20.00;61.20
7384;DHT22;3733;47.994;8.820;2023-06-19T02:41:59;19.90;60.90
7384;DHT22;3733;47.994;8.820;2023-06-19T02:44:25;19.90;61.00
7384;DHT22;3733;47.994;8.820;2023-06-19T02:46:50;19.90;60.70
7384;DHT22;3733;47.994;8.820;2023-06-19T02:49:16;19.90;60.70
7384;DHT22;3733;47.994;8.820;2023-06-19T02:51:41;19.90;60.60
7384;DHT22;3733;47.994;8.820;2023-06-19T02:54:07;19.90;60.50
7384;DHT22;3733;47.994;8.820;2023-06-19T02:56:33;19.90;60.60
7384;DHT22;3733;47.994;8.820;2023-06-19T02:58:58;19.90;60.60
7384;DHT22;3733;47.994;8.820;2023-06-19T03:01:24;19.90;60.70
7384;DHT22;3733;47.994;8.820;2023-06-19T03:03:49;19.90;60.70
7384;DHT22;3733;47.994;8.820;2023-06-19T03:06:17;19.90;60.70
7384;DHT22;3733;47.994;8.820;2023-06-19T03:08:43;19.90;60.60
7384;DHT22;3733;47.994;8.820;2023-06-19T03:11:09;19.90;60.70
7384;DHT22;3733;47.994;8.820;2023-06-19T03:16:11;19.90;60.80
7384;DHT22;3733;47.994;8.820;2023-06-19T03:18:36;19.90;60.80
7384;DHT22;3733;47.994;8.820;2023-06-19T03:21:02;19.90;60.90
7384;DHT22;3733;47.994;8.820;2023-06-19T03:23:27;19.80;60.90
7384;DHT22;3733;47.994;8.820;2023-06-19T03:25:53;19.80;60.80
7384;DHT22;3733;47.994;8.820;2023-06-19T03:28:18;19.80;60.70
7384;DHT22;3733;47.994;8.820;2023-06-19T03:30:44;19.80;60.60
7384;DHT22;3733;47.994;8.820;2023-06-19T03:33:09;19.80;60.70
7384;DHT22;3733;47.994;8.820;2023-06-19T03:35:35;19.80;60.50
7384;DHT22;3733;47.994;8.820;2023-06-19T03:38:01;19.80;60.60
7384;DHT22;3733;47.994;8.820;2023-06-19T03:40:27;19.80;60.70
7384;DHT22;3733;47.994;8.820;2023-06-19T03:42:53;19.80;60.80
7384;DHT22;3733;47.994;8.820;2023-06-19T03:45:18;19.80;61.60
7384;DHT22;3733;47.994;8.820;2023-06-19T03:47:44;19.80;61.20
7384;DHT22;3733;47.994;8.820;2023-06-19T03:50:09;19.80;61.00
7384;DHT22;3733;47.994;8.820;2023-06-19T03:52:36;19.80;61.00
7384;DHT22;3733;47.994;8.820;2023-06-19T03:55:03;19.80;61.10
7384;DHT22;3733;47.994;8.820;2023-06-19T03:57:29;19.80;61.10
7384;DHT22;3733;47.994;8.820;2023-06-19T03:59:55;19.80;61.10
7384;DHT22;3733;47.994;8.820;2023-06-19T04:02:21;19.80;61.10
7384;DHT22;3733;47.994;8.820;2023-06-19T04:04:47;19.80;61.10
7384;DHT22;3733;47.994;8.820;2023-06-19T04:07:13;19.80;61.00
7384;DHT22;3733;47.994;8.820;2023-06-19T04:09:39;19.80;61.10
7384;DHT22;3733;47.994;8.820;2023-06-19T04:12:05;19.80;61.70
7384;DHT22;3733;47.994;8.820;2023-06-19T04:14:31;19.80;61.20
7384;DHT22;3733;47.994;8.820;2023-06-19T04:16:56;19.80;61.30
7384;DHT22;3733;47.994;8.820;2023-06-19T04:19:22;19.70;61.50
7384;DHT22;3733;47.994;8.820;2023-06-19T04:21:47;19.70;61.80
7384;DHT22;3733;47.994;8.820;2023-06-19T04:24:13;19.70;62.00
7384;DHT22;3733;47.994;8.820;2023-06-19T04:26:39;19.70;62.10
7384;DHT22;3733;47.994;8.820;2023-06-19T04:29:04;19.70;62.20
7384;DHT22;3733;47.994;8.820;2023-06-19T04:31:32;19.70;62.30
7384;DHT22;3733;47.994;8.820;2023-06-19T04:33:57;19.70;62.70
7384;DHT22;3733;47.994;8.820;2023-06-19T04:36:23;19.60;63.20
7384;DHT22;3733;47.994;8.820;2023-06-19T04:38:49;19.60;63.70
7384;DHT22;3733;47.994;8.820;2023-06-19T04:41:17;19.50;64.10
7384;DHT22;3733;47.994;8.820;2023-06-19T04:43:42;19.50;64.30
7384;DHT22;3733;47.994;8.820;2023-06-19T04:46:08;19.50;64.40
7384;DHT22;3733;47.994;8.820;2023-06-19T04:48:33;19.50;64.70
7384;DHT22;3733;47.994;8.820;2023-06-19T04:51:02;19.50;65.30
7384;DHT22;3733;47.994;8.820;2023-06-19T04:53:28;19.50;65.90
7384;DHT22;3733;47.994;8.820;2023-06-19T04:55:54;19.50;66.60
7384;DHT22;3733;47.994;8.820;2023-06-19T04:58:21;19.40;67.60
7384;DHT22;3733;47.994;8.820;2023-06-19T05:00:47;19.40;69.30
7384;DHT22;3733;47.994;8.820;2023-06-19T05:03:17;19.40;70.60
7384;DHT22;3733;47.994;8.820;2023-06-19T05:05:43;19.30;72.30
7384;DHT22;3733;47.994;8.820;2023-06-19T05:08:09;19.30;73.60
7384;DHT22;3733;47.994;8.820;2023-06-19T05:10:35;19.30;73.70
7384;DHT22;3733;47.994;8.820;2023-06-19T05:13:01;19.40;74.50
7384;DHT22;3733;47.994;8.820;2023-06-19T05:15:27;19.40;74.30
7384;DHT22;3733;47.994;8.820;2023-06-19T05:17:53;19.50;75.50
7384;DHT22;3733;47.994;8.820;2023-06-19T05:20:19;19.50;75.50
7384;DHT22;3733;47.994;8.820;2023-06-19T05:22:45;19.40;75.30
7384;DHT22;3733;47.994;8.820;2023-06-19T05:25:11;19.40;75.10
7384;DHT22;3733;47.994;8.820;2023-06-19T05:27:36;19.40;75.10
7384;DHT22;3733;47.994;8.820;2023-06-19T05:30:03;19.40;75.00
7384;DHT22;3733;47.994;8.820;2023-06-19T05:32:29;19.40;75.60
7384;DHT22;3733;47.994;8.820;2023-06-19T05:34:55;19.40;76.10
7384;DHT22;3733;47.994;8.820;2023-06-19T05:37:21;19.40;76.20
7384;DHT22;3733;47.994;8.820;2023-06-19T05:39:48;19.40;76.50
7384;DHT22;3733;47.994;8.820;2023-06-19T05:42:14;19.40;76.40
7384;DHT22;3733;47.994;8.820;2023-06-19T05:44:39;19.50;76.70
7384;DHT22;3733;47.994;8.820;2023-06-19T05:47:06;19.40;76.30
7384;DHT22;3733;47.994;8.820;2023-06-19T05:49:31;19.40;79.20
7384;DHT22;3733;47.994;8.820;2023-06-19T05:51:57;19.40;80.80
7384;DHT22;3733;47.994;8.820;2023-06-19T05:54:26;19.50;84.30
7384;DHT22;3733;47.994;8.820;2023-06-19T05:56:52;19.50;83.40
7384;DHT22;3733;47.994;8.820;2023-06-19T05:59:18;19.50;82.20
7384;DHT22;3733;47.994;8.820;2023-06-19T06:01:44;19.50;83.10
7384;DHT22;3733;47.994;8.820;2023-06-19T06:04:09;19.60;84.10
7384;DHT22;3733;47.994;8.820;2023-06-19T06:06:35;19.60;84.90
7384;DHT22;3733;47.994;8.820;2023-06-19T06:09:01;19.70;81.90
7384;DHT22;3733;47.994;8.820;2023-06-19T06:11:26;19.80;82.00
7384;DHT22;3733;47.994;8.820;2023-06-19T06:13:52;19.90;81.50
7384;DHT22;3733;47.994;8.820;2023-06-19T06:16:17;20.00;81.70
7384;DHT22;3733;47.994;8.820;2023-06-19T06:18:44;20.10;81.90
7384;DHT22;3733;47.994;8.820;2023-06-19T06:21:10;20.20;80.30
7384;DHT22;3733;47.994;8.820;2023-06-19T06:23:38;20.20;77.40
7384;DHT22;3733;47.994;8.820;2023-06-19T06:26:03;20.30;76.30
7384;DHT22;3733;47.994;8.820;2023-06-19T06:28:30;20.30;75.90
7384;DHT22;3733;47.994;8.820;2023-06-19T06:30:57;20.30;77.00
7384;DHT22;3733;47.994;8.820;2023-06-19T06:33:23;20.30;78.30
7384;DHT22;3733;47.994;8.820;2023-06-19T06:35:49;20.30;79.00
7384;DHT22;3733;47.994;8.820;2023-06-19T06:38:14;20.40;79.10
7384;DHT22;3733;47.994;8.820;2023-06-19T06:40:40;20.40;79.20
7384;DHT22;3733;47.994;8.820;2023-06-19T06:43:08;20.40;80.70
7384;DHT22;3733;47.994;8.820;2023-06-19T06:45:34;20.50;80.80
7384;DHT22;3733;47.994;8.820;2023-06-19T06:48:00;20.50;80.80
7384;DHT22;3733;47.994;8.820;2023-06-19T06:50:26;20.60;80.90
7384;DHT22;3733;47.994;8.820;2023-06-19T06:52:52;20.60;79.60
7384;DHT22;3733;47.994;8.820;2023-06-19T06:55:17;20.60;79.00
7384;DHT22;3733;47.994;8.820;2023-06-19T06:57:43;20.60;80.50
7384;DHT22;3733;47.994;8.820;2023-06-19T07:00:09;20.60;80.00
7384;DHT22;3733;47.994;8.820;2023-06-19T07:02:37;20.60;80.10
7384;DHT22;3733;47.994;8.820;2023-06-19T07:05:03;20.60;81.30
7384;DHT22;3733;47.994;8.820;2023-06-19T07:07:29;20.60;81.60
7384;DHT22;3733;47.994;8.820;2023-06-19T07:09:54;20.50;82.30
7384;DHT22;3733;47.994;8.820;2023-06-19T07:12:20;20.50;81.90
7384;DHT22;3733;47.994;8.820;2023-06-19T07:14:45;20.50;82.00
7384;DHT22;3733;47.994;8.820;2023-06-19T07:17:11;20.50;82.30
7384;DHT22;3733;47.994;8.820;2023-06-19T07:19:36;20.50;81.80
7384;DHT22;3733;47.994;8.820;2023-06-19T07:22:02;20.50;82.60
7384;DHT22;3733;47.994;8.820;2023-06-19T07:24:28;20.60;78.50
7384;DHT22;3733;47.994;8.820;2023-06-19T07:26:54;20.60;76.70
7384;DHT22;3733;47.994;8.820;2023-06-19T07:29:20;20.70;79.30
7384;DHT22;3733;47.994;8.820;2023-06-19T07:31:47;20.70;76.20
7384;DHT22;3733;47.994;8.820;2023-06-19T07:34:13;20.70;77.50
7384;DHT22;3733;47.994;8.820;2023-06-19T07:36:39;20.60;78.00
7384;DHT22;3733;47.994;8.820;2023-06-19T07:39:05;20.70;80.00
7384;DHT22;3733;47.994;8.820;2023-06-19T07:41:30;20.80;76.70
7384;DHT22;3733;47.994;8.820;2023-06-19T07:43:56;20.80;75.40
7384;DHT22;3733;47.994;8.820;2023-06-19T07:46:21;20.80;75.40
7384;DHT22;3733;47.994;8.820;2023-06-19T07:48:47;20.90;74.10
7384;DHT22;3733;47.994;8.820;2023-06-19T07:51:12;21.10;72.50
7384;DHT22;3733;47.994;8.820;2023-06-19T07:53:38;21.40;69.70
7384;DHT22;3733;47.994;8.820;2023-06-19T07:56:05;21.60;68.10
7384;DHT22;3733;47.994;8.820;2023-06-19T07:58:30;21.70;67.70
7384;DHT22;3733;47.994;8.820;2023-06-19T08:00:56;21.70;66.80
7384;DHT22;3733;47.994;8.820;2023-06-19T08:03:22;21.70;66.10
7384;DHT22;3733;47.994;8.820;2023-06-19T08:05:49;21.70;65.70
7384;DHT22;3733;47.994;8.820;2023-06-19T08:08:15;21.50;65.10
7384;DHT22;3733;47.994;8.820;2023-06-19T08:10:40;21.50;65.90
7384;DHT22;3733;47.994;8.820;2023-06-19T08:13:06;21.50;66.20
7384;DHT22;3733;47.994;8.820;2023-06-19T08:15:32;21.50;66.20
7384;DHT22;3733;47.994;8.820;2023-06-19T08:17:58;21.60;65.90
7384;DHT22;3733;47.994;8.820;2023-06-19T08:20:24;21.70;65.60
7384;DHT22;3733;47.994;8.820;2023-06-19T08:22:49;21.90;65.30
7384;DHT22;3733;47.994;8.820;2023-06-19T08:25:15;22.00;64.00
7384;DHT22;3733;47.994;8.820;2023-06-19T08:27:41;22.20;63.20
7384;DHT22;3733;47.994;8.820;2023-06-19T08:30:07;22.30;62.00
7384;DHT22;3733;47.994;8.820;2023-06-19T08:32:32;22.30;62.30
7384;DHT22;3733;47.994;8.820;2023-06-19T08:34:59;22.30;62.90
7384;DHT22;3733;47.994;8.820;2023-06-19T08:37:25;22.30;63.20
7384;DHT22;3733;47.994;8.820;2023-06-19T08:39:51;22.50;63.60
7384;DHT22;3733;47.994;8.820;2023-06-19T08:42:16;22.70;63.00
7384;DHT22;3733;47.994;8.820;2023-06-19T08:44:42;22.80;62.30
7384;DHT22;3733;47.994;8.820;2023-06-19T08:47:07;23.00;62.40
7384;DHT22;3733;47.994;8.820;2023-06-19T08:49:36;23.20;61.80
7384;DHT22;3733;47.994;8.820;2023-06-19T08:52:02;23.40;61.50
7384;DHT22;3733;47.994;8.820;2023-06-19T08:54:29;23.60;59.20
7384;DHT22;3733;47.994;8.820;2023-06-19T08:56:54;23.70;58.60
7384;DHT22;3733;47.994;8.820;2023-06-19T08:59:20;23.80;57.40
7384;DHT22;3733;47.994;8.820;2023-06-19T09:01:53;23.80;56.80
7384;DHT22;3733;47.994;8.820;2023-06-19T09:04:24;23.80;55.90
7384;DHT22;3733;47.994;8.820;2023-06-19T09:06:56;23.80;56.00
7384;DHT22;3733;47.994;8.820;2023-06-19T09:09:23;23.90;55.80
7384;DHT22;3733;47.994;8.820;2023-06-19T09:14:40;24.10;55.30
7384;DHT22;3733;47.994;8.820;2023-06-19T09:17:07;24.30;55.10
7384;DHT22;3733;47.994;8.820;2023-06-19T09:19:35;24.30;54.60
7384;DHT22;3733;47.994;8.820;2023-06-19T09:22:06;24.30;54.30
7384;DHT22;3733;47.994;8.820;2023-06-19T09:24:37;24.40;54.50
7384;DHT22;3733;47.994;8.820;2023-06-19T09:27:14;24.50;54.70
7384;DHT22;3733;47.994;8.820;2023-06-19T09:29:42;24.70;54.90
7384;DHT22;3733;47.994;8.820;2023-06-19T09:32:15;24.90;54.40
7384;DHT22;3733;47.994;8.820;2023-06-19T09:34:41;25.20;54.50
7384;DHT22;3733;47.994;8.820;2023-06-19T09:37:07;25.30;52.50
7384;DHT22;3733;47.994;8.820;2023-06-19T09:39:35;25.20;52.30
7384;DHT22;3733;47.994;8.820;2023-06-19T09:42:03;25.20;51.60
7384;DHT22;3733;47.994;8.820;2023-06-19T09:44:31;25.30;51.80
7384;DHT22;3733;47.994;8.820;2023-06-19T09:47:05;25.40;51.80
7384;DHT22;3733;47.994;8.820;2023-06-19T09:49:32;25.40;51.20
7384;DHT22;3733;47.994;8.820;2023-06-19T09:51:59;25.50;51.70
7384;DHT22;3733;47.994;8.820;2023-06-19T09:54:25;25.70;51.40
7384;DHT22;3733;47.994;8.820;2023-06-19T09:56:52;25.80;51.00
7384;DHT22;3733;47.994;8.820;2023-06-19T09:59:22;25.90;50.40
7384;DHT22;3733;47.994;8.820;2023-06-19T10:01:49;25.90;50.60
7384;DHT22;3733;47.994;8.820;2023-06-19T10:04:14;25.90;50.00
7384;DHT22;3733;47.994;8.820;2023-06-19T10:06:46;25.90;50.30
7384;DHT22;3733;47.994;8.820;2023-06-19T10:09:13;26.00;50.00
7384;DHT22;3733;47.994;8.820;2023-06-19T10:11:50;26.00;50.10
7384;DHT22;3733;47.994;8.820;2023-06-19T10:14:21;26.10;50.90
7384;DHT22;3733;47.994;8.820;2023-06-19T10:16:46;26.30;50.60
7384;DHT22;3733;47.994;8.820;2023-06-19T10:19:16;26.50;49.50
7384;DHT22;3733;47.994;8.820;2023-06-19T10:21:48;26.80;49.00
7384;DHT22;3733;47.994;8.820;2023-06-19T10:24:15;27.00;48.80
7384;DHT22;3733;47.994;8.820;2023-06-19T10:26:44;27.10;48.50
7384;DHT22;3733;47.994;8.820;2023-06-19T10:29:17;27.30;48.00
7384;DHT22;3733;47.994;8.820;2023-06-19T10:31:43;27.30;47.60
7384;DHT22;3733;47.994;8.820;2023-06-19T10:34:09;27.50;47.50
7384;DHT22;3733;47.994;8.820;2023-06-19T10:36:35;27.60;47.10
7384;DHT22;3733;47.994;8.820;2023-06-19T10:39:01;27.80;47.10
7384;DHT22;3733;47.994;8.820;2023-06-19T10:41:26;27.90;46.40
7384;DHT22;3733;47.994;8.820;2023-06-19T10:46:34;27.90;46.40
7384;DHT22;3733;47.994;8.820;2023-06-19T10:49:05;28.00;46.80
7384;DHT22;3733;47.994;8.820;2023-06-19T10:51:34;28.10;45.70
7384;DHT22;3733;47.994;8.820;2023-06-19T10:54:00;28.00;45.60
7384;DHT22;3733;47.994;8.820;2023-06-19T10:56:26;28.20;46.20
7384;DHT22;3733;47.994;8.820;2023-06-19T11:01:34;28.30;45.10
7384;DHT22;3733;47.994;8.820;2023-06-19T11:04:12;28.50;45.10
7384;DHT22;3733;47.994;8.820;2023-06-19T11:06:39;28.60;44.60
7384;DHT22;3733;47.994;8.820;2023-06-19T11:09:06;28.70;44.90
7384;DHT22;3733;47.994;8.820;2023-06-19T11:11:50;28.90;44.60
7384;DHT22;3733;47.994;8.820;2023-06-19T11:14:16;29.00;43.60
7384;DHT22;3733;47.994;8.820;2023-06-19T11:16:47;29.00;43.80
7384;DHT22;3733;47.994;8.820;2023-06-19T11:19:20;28.70;43.00
7384;DHT22;3733;47.994;8.820;2023-06-19T11:21:48;28.60;44.40
7384;DHT22;3733;47.994;8.820;2023-06-19T11:24:14;28.60;44.00
7384;DHT22;3733;47.994;8.820;2023-06-19T11:26:42;28.70;44.40
7384;DHT22;3733;47.994;8.820;2023-06-19T11:29:25;28.80;44.00
7384;DHT22;3733;47.994;8.820;2023-06-19T11:32:03;29.00;44.20
7384;DHT22;3733;47.994;8.820;2023-06-19T11:34:34;29.30;44.10
7384;DHT22;3733;47.994;8.820;2023-06-19T11:37:22;29.40;42.40
7384;DHT22;3733;47.994;8.820;2023-06-19T11:39:49;29.50;42.50
7384;DHT22;3733;47.994;8.820;2023-06-19T11:42:15;29.40;42.50
7384;DHT22;3733;47.994;8.820;2023-06-19T11:45:04;29.30;42.50
7384;DHT22;3733;47.994;8.820;2023-06-19T11:47:32;29.30;42.50
7384;DHT22;3733;47.994;8.820;2023-06-19T11:49:58;29.40;42.90
7384;DHT22;3733;47.994;8.820;2023-06-19T11:52:24;29.40;41.80
7384;DHT22;3733;47.994;8.820;2023-06-19T11:54:50;29.50;42.00
7384;DHT22;3733;47.994;8.820;2023-06-19T11:57:16;29.60;41.40
7384;DHT22;3733;47.994;8.820;2023-06-19T11:59:42;29.70;41.30
7384;DHT22;3733;47.994;8.820;2023-06-19T12:02:08;29.60;40.80
7384;DHT22;3733;47.994;8.820;2023-06-19T12:04:34;29.60;40.50
7384;DHT22;3733;47.994;8.820;2023-06-19T12:07:01;29.50;40.90
7384;DHT22;3733;47.994;8.820;2023-06-19T12:09:27;29.60;41.10
7384;DHT22;3733;47.994;8.820;2023-06-19T12:11:53;29.60;41.00
7384;DHT22;3733;47.994;8.820;2023-06-19T12:14:19;29.70;42.10
7384;DHT22;3733;47.994;8.820;2023-06-19T12:16:48;29.90;42.00
7384;DHT22;3733;47.994;8.820;2023-06-19T12:19:14;30.10;40.80
7384;DHT22;3733;47.994;8.820;2023-06-19T12:21:39;30.30;39.70
7384;DHT22;3733;47.994;8.820;2023-06-19T12:24:05;30.40;39.50
7384;DHT22;3733;47.994;8.820;2023-06-19T12:26:31;30.50;39.30
7384;DHT22;3733;47.994;8.820;2023-06-19T12:29:02;30.60;39.20
7384;DHT22;3733;47.994;8.820;2023-06-19T12:31:29;30.60;39.30
7384;DHT22;3733;47.994;8.820;2023-06-19T12:33:54;30.70;39.30
7384;DHT22;3733;47.994;8.820;2023-06-19T12:36:20;30.80;38.70
7384;DHT22;3733;47.994;8.820;2023-06-19T12:38:45;30.90;38.30
7384;DHT22;3733;47.994;8.820;2023-06-19T12:41:13;30.90;38.20
7384;DHT22;3733;47.994;8.820;2023-06-19T12:43:38;30.90;38.50
7384;DHT22;3733;47.994;8.820;2023-06-19T12:46:04;31.10;38.60
7384;DHT22;3733;47.994;8.820;2023-06-19T12:48:30;31.20;38.20
7384;DHT22;3733;47.994;8.820;2023-06-19T12:50:55;31.30;38.30
7384;DHT22;3733;47.994;8.820;2023-06-19T12:53:21;31.40;38.10
7384;DHT22;3733;47.994;8.820;2023-06-19T12:55:58;31.50;37.50
7384;DHT22;3733;47.994;8.820;2023-06-19T12:58:24;31.60;37.00
7384;DHT22;3733;47.994;8.820;2023-06-19T13:00:50;31.60;37.30
7384;DHT22;3733;47.994;8.820;2023-06-19T13:03:15;31.70;36.70
7384;DHT22;3733;47.994;8.820;2023-06-19T13:05:41;31.80;36.90
7384;DHT22;3733;47.994;8.820;2023-06-19T13:08:07;31.70;36.50
7384;DHT22;3733;47.994;8.820;2023-06-19T13:10:32;31.80;36.90
7384;DHT22;3733;47.994;8.820;2023-06-19T13:12:58;32.00;37.00
7384;DHT22;3733;47.994;8.820;2023-06-19T13:15:24;32.00;36.70
7384;DHT22;3733;47.994;8.820;2023-06-19T13:17:50;32.00;36.10
7384;DHT22;3733;47.994;8.820;2023-06-19T13:20:16;31.90;36.30
7384;DHT22;3733;47.994;8.820;2023-06-19T13:22:41;31.80;36.60
7384;DHT22;3733;47.994;8.820;2023-06-19T13:25:07;31.60;36.60
7384;DHT22;3733;47.994;8.820;2023-06-19T13:27:33;31.40;36.60
7384;DHT22;3733;47.994;8.820;2023-06-19T13:30:00;31.40;37.50
7384;DHT22;3733;47.994;8.820;2023-06-19T13:32:26;31.30;37.20
7384;DHT22;3733;47.994;8.820;2023-06-19T13:34:52;31.20;36.60
7384;DHT22;3733;47.994;8.820;2023-06-19T13:37:18;30.80;37.50
7384;DHT22;3733;47.994;8.820;2023-06-19T13:39:45;30.60;37.90
7384;DHT22;3733;47.994;8.820;2023-06-19T13:42:11;30.40;37.90
7384;DHT22;3733;47.994;8.820;2023-06-19T13:44:37;30.20;38.10
7384;DHT22;3733;47.994;8.820;2023-06-19T13:47:04;30.10;38.40
7384;DHT22;3733;47.994;8.820;2023-06-19T13:49:29;29.90;38.70
7384;DHT22;3733;47.994;8.820;2023-06-19T13:51:55;29.80;38.60
7384;DHT22;3733;47.994;8.820;2023-06-19T13:54:21;29.80;39.10
7384;DHT22;3733;47.994;8.820;2023-06-19T13:56:47;29.90;38.90
7384;DHT22;3733;47.994;8.820;2023-06-19T13:59:14;29.90;38.50
7384;DHT22;3733;47.994;8.820;2023-06-19T14:01:39;29.70;38.10
7384;DHT22;3733;47.994;8.820;2023-06-19T14:04:06;29.50;38.60
7384;DHT22;3733;47.994;8.820;2023-06-19T14:06:34;29.30;39.00
7384;DHT22;3733;47.994;8.820;2023-06-19T14:08:59;29.20;39.40
7384;DHT22;3733;47.994;8.820;2023-06-19T14:11:25;29.10;39.80
7384;DHT22;3733;47.994;8.820;2023-06-19T14:13:50;29.00;39.80
7384;DHT22;3733;47.994;8.820;2023-06-19T14:16:16;29.00;39.90
7384;DHT22;3733;47.994;8.820;2023-06-19T14:18:42;29.00;40.10
7384;DHT22;3733;47.994;8.820;2023-06-19T14:21:07;28.90;39.30
7384;DHT22;3733;47.994;8.820;2023-06-19T14:23:33;28.90;39.30
7384;DHT22;3733;47.994;8.820;2023-06-19T14:26:04;28.90;39.50
7384;DHT22;3733;47.994;8.820;2023-06-19T14:28:29;28.90;39.80
7384;DHT22;3733;47.994;8.820;2023-06-19T14:30:55;28.90;39.20
7384;DHT22;3733;47.994;8.820;2023-06-19T14:33:20;28.90;39.40
7384;DHT22;3733;47.994;8.820;2023-06-19T14:35:46;28.80;39.70
7384;DHT22;3733;47.994;8.820;2023-06-19T14:38:13;28.80;40.00
7384;DHT22;3733;47.994;8.820;2023-06-19T14:40:39;28.70;39.70
7384;DHT22;3733;47.994;8.820;2023-06-19T14:43:05;28.70;39.60
7384;DHT22;3733;47.994;8.820;2023-06-19T14:45:30;28.70;39.90
7384;DHT22;3733;47.994;8.820;2023-06-19T14:47:56;28.70;39.90
7384;DHT22;3733;47.994;8.820;2023-06-19T14:50:22;28.60;39.80
7384;DHT22;3733;47.994;8.820;2023-06-19T14:52:47;28.60;39.80
7384;DHT22;3733;47.994;8.820;2023-06-19T14:55:13;28.60;39.90
7384;DHT22;3733;47.994;8.820;2023-06-19T14:57:38;28.60;39.50
7384;DHT22;3733;47.994;8.820;2023-06-19T15:00:05;28.50;39.70
7384;DHT22;3733;47.994;8.820;2023-06-19T15:02:31;28.50;40.00
7384;DHT22;3733;47.994;8.820;2023-06-19T15:04:56;28.50;40.30
7384;DHT22;3733;47.994;8.820;2023-06-19T15:07:22;28.40;40.40
7384;DHT22;3733;47.994;8.820;2023-06-19T15:09:48;28.40;41.00
7384;DHT22;3733;47.994;8.820;2023-06-19T15:12:14;28.30;41.30
7384;DHT22;3733;47.994;8.820;2023-06-19T15:14:39;28.30;41.90
7384;DHT22;3733;47.994;8.820;2023-06-19T15:17:06;28.30;42.00
7384;DHT22;3733;47.994;8.820;2023-06-19T15:19:32;28.40;42.10
7384;DHT22;3733;47.994;8.820;2023-06-19T15:21:58;28.30;42.60
7384;DHT22;3733;47.994;8.820;2023-06-19T15:24:24;28.30;43.30
7384;DHT22;3733;47.994;8.820;2023-06-19T15:26:49;28.30;44.20
7384;DHT22;3733;47.994;8.820;2023-06-19T15:29:15;28.30;45.30
7384;DHT22;3733;47.994;8.820;2023-06-19T15:31:40;28.50;46.00
7384;DHT22;3733;47.994;8.820;2023-06-19T15:34:06;28.80;45.90
7384;DHT22;3733;47.994;8.820;2023-06-19T15:36:32;29.10;45.30
7384;DHT22;3733;47.994;8.820;2023-06-19T15:38:57;29.50;44.90
7384;DHT22;3733;47.994;8.820;2023-06-19T15:41:23;30.00;44.10
7384;DHT22;3733;47.994;8.820;2023-06-19T15:43:49;30.50;43.00
7384;DHT22;3733;47.994;8.820;2023-06-19T15:46:15;30.80;42.30
7384;DHT22;3733;47.994;8.820;2023-06-19T15:48:42;30.90;40.70
7384;DHT22;3733;47.994;8.820;2023-06-19T15:51:09;30.70;40.60
7384;DHT22;3733;47.994;8.820;2023-06-19T15:53:37;30.40;40.60
7384;DHT22;3733;47.994;8.820;2023-06-19T15:56:03;30.10;40.00
7384;DHT22;3733;47.994;8.820;2023-06-19T15:58:29;29.80;39.40
7384;DHT22;3733;47.994;8.820;2023-06-19T16:00:54;29.60;39.20
7384;DHT22;3733;47.994;8.820;2023-06-19T16:03:20;29.40;39.00
7384;DHT22;3733;47.994;8.820;2023-06-19T16:05:47;29.20;37.60
7384;DHT22;3733;47.994;8.820;2023-06-19T16:08:17;29.10;37.90
7384;DHT22;3733;47.994;8.820;2023-06-19T16:10:44;29.10;37.60
7384;DHT22;3733;47.994;8.820;2023-06-19T16:13:10;29.30;37.60